createdAt,value
2023-06-07T00:00:12.057Z,101951.38
2023-06-07T00:03:00.565Z,101950.81
2023-06-07T00:05:41.407Z,101949.09
2023-06-07T00:08:22.544Z,101953.81
2023-06-07T00:11:03.609Z,101952.53
2023-06-07T00:13:44.240Z,101952.91
2023-06-07T00:16:24.436Z,101958.81
2023-06-07T00:19:04.845Z,101956.63
2023-06-07T00:21:45.799Z,101952.13
2023-06-07T00:24:26.310Z,101950.72
2023-06-07T00:27:06.897Z,101952.00
2023-06-07T00:29:47.096Z,101952.47
2023-06-07T00:32:28.473Z,101950.41
2023-06-07T00:35:09.912Z,101956.63
2023-06-07T00:37:51.047Z,101956.06
2023-06-07T00:40:32.320Z,101950.03
2023-06-07T00:43:12.597Z,101952.03
2023-06-07T00:45:52.910Z,101948.06
2023-06-07T00:48:33.540Z,101950.84
2023-06-07T00:51:16.038Z,101951.56
2023-06-07T00:54:00.656Z,101957.13
2023-06-07T00:56:41.071Z,101956.50
2023-06-07T00:59:22.400Z,101947.94
2023-06-07T01:02:04.261Z,101952.22
2023-06-07T01:04:44.806Z,101947.59
2023-06-07T01:07:26.232Z,101949.06
2023-06-07T01:10:09.235Z,101943.41
2023-06-07T01:12:55.463Z,101951.66
2023-06-07T01:15:39.526Z,101948.97
2023-06-07T01:18:20.682Z,101952.78
2023-06-07T01:21:04.738Z,101949.06
2023-06-07T01:23:45.364Z,101954.97
2023-06-07T01:26:29.862Z,101947.44
2023-06-07T01:29:10.704Z,101947.53
2023-06-07T01:31:53.317Z,101953.31
2023-06-07T01:34:36.898Z,101940.00
2023-06-07T01:37:17.558Z,101947.41
2023-06-07T01:40:01.267Z,101951.31
2023-06-07T01:42:47.156Z,101952.00
2023-06-07T01:45:28.696Z,101946.44
2023-06-07T01:48:11.967Z,101946.66
2023-06-07T01:50:55.282Z,101944.59
2023-06-07T01:53:35.932Z,101947.09
2023-06-07T01:56:40.849Z,101943.03
2023-06-07T01:59:39.645Z,101945.69
2023-06-07T02:02:37.830Z,101943.75
2023-06-07T02:05:29.549Z,101938.84
2023-06-07T02:08:31.330Z,101941.97
2023-06-07T02:11:14.402Z,101939.38
2023-06-07T02:13:56.643Z,101935.66
2023-06-07T02:16:38.182Z,101933.22
2023-06-07T02:19:22.060Z,101931.59
2023-06-07T02:22:07.457Z,101933.78
2023-06-07T02:24:48.641Z,101939.50
2023-06-07T02:27:29.111Z,101934.66
2023-06-07T02:30:10.035Z,101939.47
2023-06-07T02:32:51.523Z,101936.09
2023-06-07T02:35:31.713Z,101940.94
2023-06-07T02:38:12.839Z,101941.78
2023-06-07T02:40:55.286Z,101941.97
2023-06-07T02:43:35.566Z,101935.13
2023-06-07T02:46:15.987Z,101934.03
2023-06-07T02:48:57.389Z,101933.56
2023-06-07T02:51:38.684Z,101935.41
2023-06-07T02:54:20.750Z,101939.31
2023-06-07T02:57:04.716Z,101943.94
2023-06-07T02:59:45.953Z,101937.44
2023-06-07T03:02:33.497Z,101950.03
2023-06-07T03:05:14.701Z,101951.31
2023-06-07T03:07:58.965Z,101945.63
2023-06-07T03:10:40.397Z,101939.94
2023-06-07T03:13:22.276Z,101941.09
2023-06-07T03:16:02.525Z,101942.22
2023-06-07T03:18:45.461Z,101948.94
2023-06-07T03:21:25.829Z,101947.50
2023-06-07T03:24:12.105Z,101948.84
2023-06-07T03:26:55.408Z,101948.84
2023-06-07T03:29:36.529Z,101943.63
2023-06-07T03:32:17.524Z,101948.84
2023-06-07T03:34:58.653Z,101946.06
2023-06-07T03:37:40.328Z,101950.47
2023-06-07T03:40:20.571Z,101947.56
2023-06-07T03:43:02.636Z,101944.28
2023-06-07T03:45:43.440Z,101950.81
2023-06-07T03:48:26.958Z,101954.88
2023-06-07T03:51:07.596Z,101945.25
2023-06-07T03:53:48.486Z,101943.13
2023-06-07T03:56:28.748Z,101936.31
2023-06-07T03:59:09.920Z,101934.53
2023-06-07T04:01:52.539Z,101938.97
2023-06-07T04:04:34.722Z,101935.72
2023-06-07T04:07:17.549Z,101945.88
2023-06-07T04:09:58.032Z,101949.28
2023-06-07T04:12:39.819Z,101949.66
2023-06-07T04:15:20.297Z,101960.06
2023-06-07T04:18:00.892Z,101964.31
2023-06-07T04:20:42.736Z,101951.25
2023-06-07T04:23:26.698Z,101954.03
2023-06-07T04:26:09.604Z,101949.28
2023-06-07T04:28:50.903Z,101951.41
2023-06-07T04:31:35.719Z,101949.78
2023-06-07T04:34:22.809Z,101958.91
2023-06-07T04:37:04.912Z,101953.03
2023-06-07T04:39:50.233Z,101952.34
2023-06-07T04:42:31.914Z,101953.03
2023-06-07T04:45:12.745Z,101958.59
2023-06-07T04:47:53.693Z,101954.19
2023-06-07T04:50:35.012Z,101960.22
2023-06-07T04:53:20.919Z,101969.00
2023-06-07T04:56:04.617Z,101971.13
2023-06-07T04:58:46.306Z,101974.72
2023-06-07T05:01:34.284Z,101963.63
2023-06-07T05:04:17.907Z,101964.91
2023-06-07T05:07:05.416Z,101969.78
2023-06-07T05:09:47.329Z,101962.13
2023-06-07T05:12:31.752Z,101965.59
2023-06-07T05:15:13.178Z,101961.84
2023-06-07T05:17:55.581Z,101960.88
2023-06-07T05:20:37.277Z,101963.16
2023-06-07T05:23:18.268Z,101959.06
2023-06-07T05:26:02.712Z,101966.44
2023-06-07T05:28:44.231Z,101965.16
2023-06-07T05:31:27.530Z,101961.03
2023-06-07T05:34:09.133Z,101967.22
2023-06-07T05:36:50.270Z,101970.00
2023-06-07T05:39:31.184Z,101968.81
2023-06-07T05:42:11.692Z,101962.75
2023-06-07T05:44:55.770Z,101969.59
2023-06-07T05:47:38.099Z,101970.56
2023-06-07T05:50:20.755Z,101976.53
2023-06-07T05:53:02.267Z,101988.72
2023-06-07T05:55:42.426Z,101980.22
2023-06-07T05:58:22.820Z,101982.81
2023-06-07T06:01:06.413Z,101976.56
2023-06-07T06:03:46.660Z,101972.78
2023-06-07T06:06:27.032Z,101983.38
2023-06-07T06:09:07.571Z,101982.69
2023-06-07T06:11:48.766Z,101987.56
2023-06-07T06:14:28.987Z,101995.34
2023-06-07T06:17:09.427Z,101996.16
2023-06-07T06:19:49.541Z,101979.97
2023-06-07T06:22:29.789Z,101979.97
2023-06-07T06:25:10.044Z,101980.31
2023-06-07T06:27:50.380Z,101984.72
2023-06-07T06:30:31.798Z,101984.72
2023-06-07T06:33:12.089Z,101992.06
2023-06-07T06:35:54.353Z,101992.28
2023-06-07T06:38:34.582Z,102005.66
2023-06-07T06:41:14.803Z,102021.78
2023-06-07T06:43:55.199Z,102012.09
2023-06-07T06:46:36.488Z,102006.16
2023-06-07T06:49:16.875Z,102014.88
2023-06-07T06:51:57.009Z,102024.00
2023-06-07T06:54:37.322Z,102029.84
2023-06-07T06:57:17.848Z,102027.09
2023-06-07T07:00:12.257Z,102021.94
2023-06-07T07:02:52.760Z,102030.88
2023-06-07T07:05:33.820Z,102017.44
2023-06-07T07:08:14.322Z,102028.56
2023-06-07T07:10:54.493Z,102018.34
2023-06-07T07:13:34.693Z,102026.25
2023-06-07T07:16:15.252Z,102025.16
2023-06-07T07:18:55.833Z,102021.81
2023-06-07T07:21:36.768Z,102023.44
2023-06-07T07:24:17.128Z,102024.72
2023-06-07T07:26:57.618Z,102031.78
2023-06-07T07:29:37.766Z,102040.78
2023-06-07T07:32:17.931Z,102035.38
2023-06-07T07:34:58.110Z,102035.28
2023-06-07T07:37:42.033Z,102037.16
2023-06-07T07:40:22.470Z,102033.38
2023-06-07T07:43:02.647Z,102030.28
2023-06-07T07:45:42.832Z,102026.94
2023-06-07T07:48:23.152Z,102035.06
2023-06-07T07:51:04.227Z,102033.69
2023-06-07T07:53:44.322Z,102040.97
2023-06-07T07:56:24.927Z,102048.28
2023-06-07T07:59:06.406Z,102034.44
2023-06-07T08:01:50.378Z,102041.63
2023-06-07T08:04:31.166Z,102047.88
2023-06-07T08:07:16.515Z,102042.97
2023-06-07T08:09:56.860Z,102039.94
2023-06-07T08:12:37.104Z,102040.63
2023-06-07T08:15:17.501Z,102036.19
2023-06-07T08:17:57.601Z,102033.97
2023-06-07T08:20:38.660Z,102031.47
2023-06-07T08:23:19.147Z,102036.16
2023-06-07T08:26:00.070Z,102029.19
2023-06-07T08:28:40.657Z,102033.03
2023-06-07T08:31:21.129Z,102034.31
2023-06-07T08:34:01.624Z,102030.97
2023-06-07T08:36:43.080Z,102030.81
2023-06-07T08:39:24.195Z,102022.88
2023-06-07T08:42:04.977Z,102027.50
2023-06-07T08:44:45.663Z,102025.38
2023-06-07T08:47:29.015Z,102040.31
2023-06-07T08:50:15.242Z,102040.50
2023-06-07T08:52:58.027Z,102040.41
2023-06-07T08:55:38.796Z,102044.63
2023-06-07T08:58:19.970Z,102040.31
2023-06-07T09:01:01.270Z,102055.25
2023-06-07T09:03:41.943Z,102051.50
2023-06-07T09:06:25.695Z,102044.53
2023-06-07T09:09:06.725Z,102034.44
2023-06-07T09:11:53.594Z,102046.06
2023-06-07T09:14:35.400Z,102036.53
2023-06-07T09:17:16.115Z,102046.44
2023-06-07T09:19:56.340Z,102041.78
2023-06-07T09:22:36.824Z,102034.66
2023-06-07T09:25:17.033Z,102038.69
2023-06-07T09:27:58.214Z,102042.03
2023-06-07T09:31:01.254Z,102033.13
2023-06-07T09:33:41.616Z,102042.66
2023-06-07T09:36:22.119Z,102039.69
2023-06-07T09:39:21.300Z,102030.69
2023-06-07T09:42:01.757Z,102032.91
2023-06-07T09:44:42.418Z,102040.00
2023-06-07T09:47:24.759Z,102033.13
2023-06-07T09:50:11.249Z,102028.31
2023-06-07T09:52:58.003Z,102036.72
2023-06-07T09:55:38.602Z,102044.25
2023-06-07T09:58:25.014Z,102030.75
2023-06-07T10:01:08.003Z,102023.47
2023-06-07T10:03:48.775Z,102030.91
2023-06-07T10:06:33.646Z,102025.97
2023-06-07T10:09:17.721Z,102031.78
2023-06-07T10:11:59.550Z,102025.63
2023-06-07T10:14:46.874Z,102025.63
2023-06-07T10:17:49.821Z,102020.50
2023-06-07T10:20:36.894Z,102016.38
2023-06-07T10:23:30.078Z,102025.88
2023-06-07T10:26:30.090Z,102016.69
2023-06-07T10:29:27.105Z,102013.50
2023-06-07T10:32:22.724Z,102011.66
2023-06-07T10:35:04.553Z,102011.66
2023-06-07T10:37:45.043Z,102018.13
2023-06-07T10:40:27.145Z,102004.69
2023-06-07T10:43:07.543Z,101997.56
2023-06-07T10:45:48.144Z,101998.16
2023-06-07T10:48:36.065Z,101985.56
2023-06-07T10:51:17.457Z,101981.75
2023-06-07T10:53:58.245Z,101973.47
2023-06-07T10:56:39.280Z,101977.72
2023-06-07T10:59:23.914Z,101983.22
2023-06-07T11:02:26.047Z,101990.59
2023-06-07T11:05:07.118Z,101991.97
2023-06-07T11:07:49.867Z,101988.97
2023-06-07T11:10:33.180Z,101991.09
2023-06-07T11:13:13.507Z,101991.66
2023-06-07T11:15:54.041Z,101995.84
2023-06-07T11:19:06.367Z,101984.06
2023-06-07T11:21:59.005Z,101984.59
2023-06-07T11:24:39.358Z,101986.75
2023-06-07T11:27:20.695Z,101991.88
2023-06-07T11:30:01.193Z,101995.31
2023-06-07T11:32:43.509Z,101988.22
2023-06-07T11:35:23.914Z,101977.88
2023-06-07T11:38:04.576Z,101976.38
2023-06-07T11:40:46.306Z,101973.72
2023-06-07T11:43:28.822Z,101972.31
2023-06-07T11:46:14.516Z,101970.19
2023-06-07T11:48:56.605Z,101958.44
2023-06-07T11:51:40.793Z,101964.13
2023-06-07T11:54:25.924Z,101959.50
2023-06-07T11:57:09.586Z,101962.00
2023-06-07T11:59:52.460Z,101960.53
2023-06-07T12:02:41.371Z,101953.06
2023-06-07T12:05:31.261Z,101954.88
2023-06-07T12:08:16.438Z,101951.00
2023-06-07T12:10:56.997Z,101956.78
2023-06-07T12:13:39.256Z,101950.84
2023-06-07T12:16:23.473Z,101945.59
2023-06-07T12:19:06.265Z,101954.88
2023-06-07T12:21:46.852Z,101955.66
2023-06-07T12:24:27.262Z,101958.47
2023-06-07T12:27:13.101Z,101942.38
2023-06-07T12:29:57.458Z,101948.44
2023-06-07T12:32:37.941Z,101937.97
2023-06-07T12:35:18.938Z,101948.03
2023-06-07T12:37:59.638Z,101936.38
2023-06-07T12:40:40.499Z,101937.59
2023-06-07T12:43:21.045Z,101934.31
2023-06-07T12:46:01.092Z,101939.16
2023-06-07T12:48:44.547Z,101937.56
2023-06-07T12:51:26.838Z,101925.47
2023-06-07T12:54:07.469Z,101927.47
2023-06-07T12:56:48.047Z,101919.44
2023-06-07T12:59:28.256Z,101912.19
2023-06-07T13:02:09.001Z,101912.63
2023-06-07T13:04:50.058Z,101916.63
2023-06-07T13:07:30.243Z,101902.94
2023-06-07T13:10:11.727Z,101897.31
2023-06-07T13:12:52.487Z,101898.06
2023-06-07T13:15:32.633Z,101897.28
2023-06-07T13:18:13.062Z,101890.81
2023-06-07T13:20:53.335Z,101883.53
2023-06-07T13:23:34.462Z,101879.47
2023-06-07T13:26:16.158Z,101881.38
2023-06-07T13:28:56.636Z,101875.22
2023-06-07T13:31:36.954Z,101876.00
2023-06-07T13:34:17.217Z,101872.44
2023-06-07T13:36:59.420Z,101875.38
2023-06-07T13:39:39.583Z,101869.41
2023-06-07T13:42:22.967Z,101870.94
2023-06-07T13:45:03.632Z,101851.19
2023-06-07T13:47:44.398Z,101856.88
2023-06-07T13:50:24.755Z,101857.31
2023-06-07T13:53:05.318Z,101859.75
2023-06-07T13:55:48.268Z,101852.50
2023-06-07T13:58:33.375Z,101847.72
2023-06-07T14:01:15.062Z,101852.56
2023-06-07T14:03:56.916Z,101834.88
2023-06-07T14:06:39.993Z,101844.16
2023-06-07T14:09:20.905Z,101836.53
2023-06-07T14:12:01.701Z,101826.88
2023-06-07T14:14:42.188Z,101835.75
2023-06-07T14:17:22.456Z,101830.91
2023-06-07T14:20:03.259Z,101827.28
2023-06-07T14:22:43.819Z,101819.25
2023-06-07T14:25:24.232Z,101820.47
2023-06-07T14:28:04.904Z,101812.03
2023-06-07T14:30:45.304Z,101816.84
2023-06-07T14:33:25.603Z,101815.22
2023-06-07T14:36:06.448Z,101808.75
2023-06-07T14:38:46.790Z,101813.56
2023-06-07T14:41:27.828Z,101799.88
2023-06-07T14:44:07.988Z,101797.91
2023-06-07T14:46:48.238Z,101790.97
2023-06-07T14:49:28.749Z,101795.31
2023-06-07T14:52:08.939Z,101787.19
2023-06-07T14:54:49.342Z,101782.72
2023-06-07T14:57:29.613Z,101780.25
2023-06-07T15:00:10.808Z,101784.28
2023-06-07T15:02:51.087Z,101781.84
2023-06-07T15:05:31.760Z,101777.00
2023-06-07T15:08:12.000Z,101773.03
2023-06-07T15:10:52.295Z,101780.28
2023-06-07T15:13:32.678Z,101781.53
2023-06-07T15:16:13.244Z,101780.75
2023-06-07T15:18:53.582Z,101779.94
2023-06-07T15:21:33.875Z,101773.94
2023-06-07T15:24:15.501Z,101778.78
2023-06-07T15:26:55.818Z,101777.63
2023-06-07T15:29:36.211Z,101770.00
2023-06-07T15:32:16.594Z,101781.34
2023-06-07T15:34:56.840Z,101773.72
2023-06-07T15:37:37.508Z,101770.13
2023-06-07T15:40:18.031Z,101774.19
2023-06-07T15:42:58.037Z,101768.13
2023-06-07T15:45:39.666Z,101778.59
2023-06-07T15:48:19.734Z,101775.78
2023-06-07T15:51:00.048Z,101776.22
2023-06-07T15:53:40.392Z,101774.59
2023-06-07T15:56:21.543Z,101770.97
2023-06-07T15:59:02.179Z,101763.34
2023-06-07T16:01:42.577Z,101764.56
2023-06-07T16:04:22.869Z,101759.75
2023-06-07T16:07:04.400Z,101750.47
2023-06-07T16:09:44.441Z,101751.66
2023-06-07T16:12:24.717Z,101748.44
2023-06-07T16:15:07.221Z,101746.03
2023-06-07T16:17:47.791Z,101737.56
2023-06-07T16:20:28.036Z,101727.91
2023-06-07T16:23:09.120Z,101729.91
2023-06-07T16:25:50.801Z,101729.13
2023-06-07T16:28:32.967Z,101731.94
2023-06-07T16:31:13.226Z,101718.25
2023-06-07T16:33:53.737Z,101719.81
2023-06-07T16:36:37.527Z,101722.63
2023-06-07T16:39:17.782Z,101715.75
2023-06-07T16:41:58.407Z,101715.72
2023-06-07T16:44:38.811Z,101709.63
2023-06-07T16:47:20.258Z,101712.00
2023-06-07T16:50:00.671Z,101709.16
2023-06-07T16:52:40.918Z,101709.56
2023-06-07T16:55:22.160Z,101712.41
2023-06-07T16:58:02.428Z,101712.75
2023-06-07T17:00:44.313Z,101713.97
2023-06-07T17:03:24.469Z,101703.13
2023-06-07T17:06:06.716Z,101709.22
2023-06-07T17:08:48.766Z,101706.41
2023-06-07T17:11:29.411Z,101708.03
2023-06-07T17:14:09.656Z,101704.69
2023-06-07T17:16:50.074Z,101707.00
2023-06-07T17:19:30.611Z,101704.44
2023-06-07T17:22:10.717Z,101697.09
2023-06-07T17:24:51.225Z,101698.59
2023-06-07T17:27:32.332Z,101697.25
2023-06-07T17:30:14.466Z,101695.50
2023-06-07T17:32:54.764Z,101696.22
2023-06-07T17:35:35.134Z,101699.34
2023-06-07T17:38:15.494Z,101700.94
2023-06-07T17:40:55.762Z,101700.06
2023-06-07T17:43:36.082Z,101696.31
2023-06-07T17:46:16.613Z,101697.84
2023-06-07T17:48:56.879Z,101693.31
2023-06-07T17:51:37.239Z,101688.75
2023-06-07T17:54:19.711Z,101685.09
2023-06-07T17:56:59.860Z,101694.41
2023-06-07T17:59:40.279Z,101689.81
2023-06-07T18:02:21.209Z,101696.41
2023-06-07T18:05:04.125Z,101688.47
2023-06-07T18:07:44.183Z,101685.47
2023-06-07T18:10:24.862Z,101683.97
2023-06-07T18:13:05.156Z,101696.97
2023-06-07T18:15:45.446Z,101690.56
2023-06-07T18:18:26.040Z,101688.06
2023-06-07T18:21:09.762Z,101682.47
2023-06-07T18:23:50.551Z,101691.44
2023-06-07T18:26:31.219Z,101698.00
2023-06-07T18:29:12.740Z,101694.00
2023-06-07T18:31:53.875Z,101693.66
2023-06-07T18:34:35.322Z,101698.94
2023-06-07T18:37:16.446Z,101700.63
2023-06-07T18:39:57.634Z,101708.75
2023-06-07T18:42:39.086Z,101705.59
2023-06-07T18:45:20.131Z,101698.81
2023-06-07T18:48:01.997Z,101700.47
2023-06-07T18:50:43.549Z,101699.31
2023-06-07T18:53:23.838Z,101700.13
2023-06-07T18:56:10.879Z,101695.72
2023-06-07T18:58:51.219Z,101700.97
2023-06-07T19:01:49.664Z,101708.63
2023-06-07T19:04:31.434Z,101705.06
2023-06-07T19:07:13.454Z,101713.13
2023-06-07T19:09:53.704Z,101712.31
2023-06-07T19:12:33.923Z,101723.59
2023-06-07T19:15:15.402Z,101717.16
2023-06-07T19:17:57.413Z,101715.13
2023-06-07T19:20:37.677Z,101709.09
2023-06-07T19:23:18.266Z,101707.50
2023-06-07T19:25:58.984Z,101720.72
2023-06-07T19:28:40.101Z,101727.13
2023-06-07T19:31:20.554Z,101719.09
2023-06-07T19:34:00.905Z,101718.69
2023-06-07T19:36:41.512Z,101709.38
2023-06-07T19:39:21.712Z,101715.00
2023-06-07T19:42:06.727Z,101715.38
2023-06-07T19:44:48.114Z,101726.59
2023-06-07T19:47:29.593Z,101733.81
2023-06-07T19:50:11.318Z,101727.38
2023-06-07T19:52:51.477Z,101735.38
2023-06-07T19:55:32.374Z,101739.38
2023-06-07T19:58:15.293Z,101741.34
2023-06-07T20:00:57.479Z,101725.66
2023-06-07T20:03:37.490Z,101736.06
2023-06-07T20:06:17.862Z,101735.25
2023-06-07T20:08:58.288Z,101743.22
2023-06-07T20:11:38.624Z,101740.81
2023-06-07T20:14:19.220Z,101745.63
2023-06-07T20:17:00.812Z,101749.94
2023-06-07T20:19:41.321Z,101762.34
2023-06-07T20:22:21.584Z,101766.31
2023-06-07T20:25:03.784Z,101767.06
2023-06-07T20:27:44.233Z,101765.44
2023-06-07T20:30:24.443Z,101766.19
2023-06-07T20:33:04.740Z,101762.91
2023-06-07T20:35:45.082Z,101766.06
2023-06-07T20:38:25.579Z,101765.94
2023-06-07T20:41:06.220Z,101763.06
2023-06-07T20:43:46.963Z,101763.34
2023-06-07T20:46:27.737Z,101766.47
2023-06-07T20:49:09.063Z,101764.34
2023-06-07T20:51:49.592Z,101762.66
2023-06-07T20:54:29.831Z,101768.19
2023-06-07T20:57:10.162Z,101768.53
2023-06-07T20:59:50.440Z,101776.41
2023-06-07T21:02:31.804Z,101773.91
2023-06-07T21:05:12.067Z,101781.00
2023-06-07T21:07:52.247Z,101775.31
2023-06-07T21:10:34.485Z,101781.59
2023-06-07T21:13:16.157Z,101780.28
2023-06-07T21:15:56.955Z,101783.03
2023-06-07T21:18:37.262Z,101785.31
2023-06-07T21:21:17.602Z,101789.63
2023-06-07T21:23:59.999Z,101801.97
2023-06-07T21:26:40.599Z,101797.81
2023-06-07T21:29:20.906Z,101802.53
2023-06-07T21:32:01.430Z,101794.50
2023-06-07T21:34:42.086Z,101802.09
2023-06-07T21:37:22.198Z,101802.50
2023-06-07T21:40:02.998Z,101801.66
2023-06-07T21:42:43.242Z,101808.78
2023-06-07T21:45:27.628Z,101807.16
2023-06-07T21:48:08.052Z,101802.69
2023-06-07T21:50:51.755Z,101800.63
2023-06-07T21:53:32.648Z,101812.56
2023-06-07T21:56:12.842Z,101800.59
2023-06-07T21:58:52.942Z,101802.16
2023-06-07T22:01:33.225Z,101793.63
2023-06-07T22:04:13.670Z,101794.75
2023-06-07T22:06:53.898Z,101797.50
2023-06-07T22:09:34.343Z,101795.38
2023-06-07T22:12:15.848Z,101798.38
2023-06-07T22:14:58.340Z,101785.09
2023-06-07T22:17:40.522Z,101782.19
2023-06-07T22:20:24.837Z,101787.63
2023-06-07T22:23:05.677Z,101794.69
2023-06-07T22:25:47.220Z,101800.13
2023-06-07T22:28:30.796Z,101810.44
2023-06-07T22:31:11.309Z,101812.38
2023-06-07T22:33:52.423Z,101813.53
2023-06-07T22:36:33.775Z,101815.06
2023-06-07T22:39:15.079Z,101818.59
2023-06-07T22:41:56.274Z,101809.28
2023-06-07T22:44:38.536Z,101811.56
2023-06-07T22:47:20.029Z,101811.47
2023-06-07T22:50:02.495Z,101809.44
2023-06-07T22:52:45.267Z,101807.28
2023-06-07T22:55:26.832Z,101802.78
2023-06-07T22:58:08.687Z,101799.94
2023-06-07T23:00:49.271Z,101796.50
2023-06-07T23:03:33.958Z,101803.53
2023-06-07T23:06:15.316Z,101798.19
2023-06-07T23:08:55.836Z,101795.69
2023-06-07T23:11:36.003Z,101790.38
2023-06-07T23:14:20.297Z,101792.28
2023-06-07T23:17:00.823Z,101794.91
2023-06-07T23:19:41.991Z,101795.13
2023-06-07T23:22:22.298Z,101787.84
2023-06-07T23:25:04.100Z,101780.44
2023-06-07T23:27:45.815Z,101787.09
2023-06-07T23:30:27.272Z,101791.72
2023-06-07T23:33:08.770Z,101789.91
2023-06-07T23:35:49.298Z,101793.78
2023-06-07T23:38:29.844Z,101783.34
2023-06-07T23:41:10.175Z,101788.00
2023-06-07T23:43:51.925Z,101789.88
2023-06-07T23:46:32.687Z,101791.78
2023-06-07T23:49:13.953Z,101783.78
2023-06-07T23:51:55.044Z,101782.06
2023-06-07T23:54:35.541Z,101780.78
2023-06-07T23:57:16.415Z,101783.03
2023-06-07T23:59:56.886Z,101776.22
